createdAt,value
2022-11-08T00:00:05.356Z,100510.84
2022-11-08T00:02:33.691Z,100508.09
2022-11-08T00:05:21.018Z,100513.72
2022-11-08T00:08:06.372Z,100520.22
2022-11-08T00:10:52.974Z,100515.31
2022-11-08T00:13:40.048Z,100522.66
2022-11-08T00:16:08.040Z,100518.28
2022-11-08T00:18:35.581Z,100508.94
2022-11-08T00:21:04.799Z,100527.59
2022-11-08T00:23:32.434Z,100514.94
2022-11-08T00:26:00.076Z,100518.66
2022-11-08T00:28:27.852Z,100514.31
2022-11-08T00:30:56.015Z,100513.63
2022-11-08T00:33:23.545Z,100515.47
2022-11-08T00:35:51.087Z,100515.59
2022-11-08T00:41:13.565Z,100509.19
2022-11-08T00:43:42.066Z,100512.16
2022-11-08T00:46:09.986Z,100505.03
2022-11-08T00:48:37.644Z,100510.44
2022-11-08T00:51:06.994Z,100510.75
2022-11-08T00:53:37.974Z,100502.91
2022-11-08T00:56:09.292Z,100499.09
2022-11-08T00:58:37.579Z,100499.53
2022-11-08T01:01:10.974Z,100499.53
2022-11-08T01:03:39.353Z,100503.53
2022-11-08T01:06:08.862Z,100505.19
2022-11-08T01:08:37.995Z,100496.34
2022-11-08T01:11:08.241Z,100502.13
2022-11-08T01:13:36.729Z,100499.63
2022-11-08T01:16:10.638Z,100501.56
2022-11-08T01:18:38.595Z,100498.91
2022-11-08T01:21:07.030Z,100499.06
2022-11-08T01:23:35.468Z,100493.06
2022-11-08T01:26:06.449Z,100494.06
2022-11-08T01:28:35.001Z,100488.84
2022-11-08T01:31:06.031Z,100491.66
2022-11-08T01:33:33.696Z,100493.50
2022-11-08T01:36:01.337Z,100486.66
2022-11-08T01:38:28.955Z,100496.91
2022-11-08T01:40:56.494Z,100488.09
2022-11-08T01:43:37.006Z,100490.59
2022-11-08T01:46:39.050Z,100488.22
2022-11-08T01:49:32.370Z,100478.84
2022-11-08T01:52:11.550Z,100482.47
2022-11-08T01:54:44.595Z,100482.63
2022-11-08T01:57:43.999Z,100479.81
2022-11-08T02:00:14.469Z,100481.38
2022-11-08T02:02:44.579Z,100475.88
2022-11-08T02:05:25.649Z,100480.09
2022-11-08T02:08:02.023Z,100476.13
2022-11-08T02:10:35.446Z,100476.00
2022-11-08T02:13:05.915Z,100467.69
2022-11-08T02:15:36.894Z,100472.97
2022-11-08T02:18:05.308Z,100466.94
2022-11-08T02:20:34.069Z,100470.31
2022-11-08T02:23:09.824Z,100462.31
2022-11-08T02:25:38.983Z,100462.56
2022-11-08T02:28:07.019Z,100461.41
2022-11-08T02:30:34.850Z,100453.56
2022-11-08T02:33:16.002Z,100454.13
2022-11-08T02:35:45.367Z,100452.97
2022-11-08T02:38:14.111Z,100438.47
2022-11-08T02:40:51.465Z,100437.06
2022-11-08T02:43:24.402Z,100438.91
2022-11-08T02:45:53.209Z,100426.66
2022-11-08T02:48:21.613Z,100429.84
2022-11-08T02:50:49.310Z,100422.06
2022-11-08T02:53:18.843Z,100431.38
2022-11-08T02:55:48.085Z,100428.41
2022-11-08T02:58:17.263Z,100427.41
2022-11-08T03:00:45.248Z,100419.25
2022-11-08T03:03:12.981Z,100420.78
2022-11-08T03:05:47.481Z,100417.13
2022-11-08T03:08:16.901Z,100419.50
2022-11-08T03:10:46.390Z,100416.81
2022-11-08T03:13:14.011Z,100412.47
2022-11-08T03:15:42.945Z,100406.28
2022-11-08T03:18:13.002Z,100413.63
2022-11-08T03:20:40.561Z,100409.28
2022-11-08T03:23:09.552Z,100405.91
2022-11-08T03:26:03.305Z,100399.06
2022-11-08T03:28:33.013Z,100395.84
2022-11-08T03:31:02.081Z,100386.34
2022-11-08T03:33:30.626Z,100389.19
2022-11-08T03:35:58.290Z,100387.81
2022-11-08T03:38:25.907Z,100382.78
2022-11-08T03:40:54.072Z,100385.75
2022-11-08T03:43:24.028Z,100383.38
2022-11-08T03:45:52.503Z,100377.50
2022-11-08T03:48:23.442Z,100380.47
2022-11-08T03:50:51.458Z,100371.13
2022-11-08T03:53:18.991Z,100373.22
2022-11-08T03:55:48.036Z,100378.06
2022-11-08T03:58:15.865Z,100370.50
2022-11-08T04:00:44.437Z,100368.28
2022-11-08T04:03:12.158Z,100374.06
2022-11-08T04:05:41.172Z,100359.50
2022-11-08T04:08:08.797Z,100368.81
2022-11-08T04:10:38.372Z,100363.94
2022-11-08T04:13:24.012Z,100369.72
2022-11-08T04:15:55.804Z,100369.16
2022-11-08T04:18:44.941Z,100366.13
2022-11-08T04:21:23.020Z,100363.19
2022-11-08T04:23:53.097Z,100366.34
2022-11-08T04:26:22.259Z,100362.28
2022-11-08T04:28:50.085Z,100362.56
2022-11-08T04:31:20.428Z,100362.88
2022-11-08T04:33:48.020Z,100358.81
2022-11-08T04:36:19.048Z,100349.47
2022-11-08T04:39:14.069Z,100353.41
2022-11-08T04:41:45.014Z,100352.03
2022-11-08T04:44:15.460Z,100344.47
2022-11-08T04:46:45.024Z,100354.59
2022-11-08T04:49:15.105Z,100353.88
2022-11-08T04:51:43.993Z,100351.53
2022-11-08T04:54:12.017Z,100348.19
2022-11-08T04:56:41.544Z,100345.81
2022-11-08T04:59:12.202Z,100340.50
2022-11-08T05:01:40.244Z,100343.47
2022-11-08T05:04:08.041Z,100332.94
2022-11-08T05:06:37.842Z,100327.63
2022-11-08T05:09:06.823Z,100317.13
2022-11-08T05:11:34.354Z,100316.84
2022-11-08T05:14:01.918Z,100316.97
2022-11-08T05:16:32.766Z,100323.00
2022-11-08T05:19:00.876Z,100317.53
2022-11-08T05:21:46.266Z,100312.38
2022-11-08T05:24:18.819Z,100310.00
2022-11-08T05:26:50.311Z,100310.69
2022-11-08T05:29:18.635Z,100302.56
2022-11-08T05:31:46.449Z,100299.06
2022-11-08T05:34:14.563Z,100298.06
2022-11-08T05:36:43.145Z,100294.97
2022-11-08T05:39:11.017Z,100293.16
2022-11-08T05:41:39.883Z,100285.69
2022-11-08T05:44:07.576Z,100279.84
2022-11-08T05:46:35.169Z,100276.88
2022-11-08T05:49:04.049Z,100259.41
2022-11-08T05:51:34.454Z,100264.88
2022-11-08T05:54:02.500Z,100263.56
2022-11-08T05:56:30.100Z,100247.78
2022-11-08T05:58:59.056Z,100251.28
2022-11-08T06:01:27.682Z,100253.78
2022-11-08T06:03:55.550Z,100243.13
2022-11-08T06:06:23.817Z,100251.00
2022-11-08T06:08:52.188Z,100250.13
2022-11-08T06:11:24.061Z,100251.66
2022-11-08T06:13:53.365Z,100249.44
2022-11-08T06:16:24.206Z,100260.91
2022-11-08T06:18:51.938Z,100253.66
2022-11-08T06:21:22.795Z,100258.41
2022-11-08T06:23:53.662Z,100249.44
2022-11-08T06:26:22.141Z,100240.34
2022-11-08T06:28:49.737Z,100235.16
2022-11-08T06:31:17.339Z,100232.50
2022-11-08T06:33:48.062Z,100223.78
2022-11-08T06:36:15.601Z,100216.91
2022-11-08T06:38:43.379Z,100223.91
2022-11-08T06:41:18.549Z,100215.94
2022-11-08T06:43:46.579Z,100216.09
2022-11-08T06:46:14.511Z,100209.16
2022-11-08T06:48:43.165Z,100201.66
2022-11-08T06:51:15.926Z,100202.00
2022-11-08T06:54:14.175Z,100195.56
2022-11-08T06:56:44.784Z,100203.56
2022-11-08T06:59:13.029Z,100202.25
2022-11-08T07:01:45.500Z,100201.13
2022-11-08T07:04:15.146Z,100195.34
2022-11-08T07:06:44.199Z,100193.19
2022-11-08T07:09:14.014Z,100187.25
2022-11-08T07:11:41.594Z,100181.81
2022-11-08T07:14:10.038Z,100181.31
2022-11-08T07:16:37.639Z,100168.19
2022-11-08T07:19:06.011Z,100171.75
2022-11-08T07:21:34.125Z,100168.16
2022-11-08T07:24:03.069Z,100171.47
2022-11-08T07:26:30.629Z,100169.91
2022-11-08T07:29:00.071Z,100173.59
2022-11-08T07:31:27.866Z,100179.44
2022-11-08T07:33:56.125Z,100181.81
2022-11-08T07:36:23.665Z,100180.34
2022-11-08T07:38:52.844Z,100178.22
2022-11-08T07:41:21.890Z,100181.56
2022-11-08T07:43:49.442Z,100185.72
2022-11-08T07:46:18.403Z,100185.41
2022-11-08T07:48:46.533Z,100186.41
2022-11-08T07:51:14.081Z,100180.59
2022-11-08T07:53:44.683Z,100185.84
2022-11-08T07:56:13.098Z,100185.38
2022-11-08T07:59:07.259Z,100189.75
2022-11-08T08:01:36.107Z,100183.94
2022-11-08T08:04:04.550Z,100188.66
2022-11-08T08:06:33.530Z,100191.16
2022-11-08T08:09:02.026Z,100193.97
2022-11-08T08:11:33.602Z,100190.47
2022-11-08T08:14:01.419Z,100192.34
2022-11-08T08:16:30.323Z,100188.69
2022-11-08T08:18:57.880Z,100188.00
2022-11-08T08:21:25.656Z,100186.88
2022-11-08T08:23:53.224Z,100182.66
2022-11-08T08:26:20.792Z,100189.03
2022-11-08T08:28:48.287Z,100180.72
2022-11-08T08:31:18.032Z,100187.19
2022-11-08T08:33:47.925Z,100178.88
2022-11-08T08:36:15.560Z,100184.88
2022-11-08T08:38:44.694Z,100182.09
2022-11-08T08:41:14.389Z,100179.59
2022-11-08T08:43:42.072Z,100180.63
2022-11-08T08:46:12.107Z,100175.81
2022-11-08T08:48:40.578Z,100165.63
2022-11-08T08:51:11.137Z,100169.16
2022-11-08T08:53:39.054Z,100167.50
2022-11-08T08:56:11.037Z,100153.50
2022-11-08T08:58:40.529Z,100160.69
2022-11-08T09:03:58.182Z,100153.84
2022-11-08T09:06:28.112Z,100150.19
2022-11-08T09:08:56.555Z,100155.38
2022-11-08T09:11:24.251Z,100151.38
2022-11-08T09:13:52.517Z,100146.34
2022-11-08T09:16:20.807Z,100142.69
2022-11-08T09:18:48.571Z,100145.00
2022-11-08T09:21:16.585Z,100135.53
2022-11-08T09:23:45.603Z,100133.88
2022-11-08T09:26:13.181Z,100131.84
2022-11-08T09:28:41.037Z,100130.84
2022-11-08T09:31:11.192Z,100125.31
2022-11-08T09:33:40.164Z,100131.78
2022-11-08T09:36:10.138Z,100124.41
2022-11-08T09:38:39.028Z,100126.56
2022-11-08T09:41:31.043Z,100136.25
2022-11-08T09:44:13.801Z,100125.69
2022-11-08T09:46:49.695Z,100120.31
2022-11-08T09:49:23.067Z,100111.94
2022-11-08T09:51:53.053Z,100131.78
2022-11-08T09:54:25.091Z,100131.28
2022-11-08T09:56:55.449Z,100132.41
2022-11-08T09:59:36.123Z,100135.41
2022-11-08T10:02:04.145Z,100143.38
2022-11-08T10:04:34.145Z,100145.03
2022-11-08T10:07:23.573Z,100147.84
2022-11-08T10:10:24.242Z,100142.63
2022-11-08T10:13:01.869Z,100147.28
2022-11-08T10:15:38.156Z,100152.75
2022-11-08T10:18:40.057Z,100146.16
2022-11-08T10:21:13.853Z,100135.75
2022-11-08T10:23:46.209Z,100123.97
2022-11-08T10:26:18.063Z,100131.56
2022-11-08T10:28:54.062Z,100127.63
2022-11-08T10:31:22.926Z,100129.41
2022-11-08T10:33:52.892Z,100129.31
2022-11-08T10:36:25.315Z,100123.59
2022-11-08T10:39:01.807Z,100121.69
2022-11-08T10:41:36.445Z,100119.09
2022-11-08T10:44:15.209Z,100112.50
2022-11-08T10:46:45.130Z,100114.66
2022-11-08T10:49:17.526Z,100109.75
2022-11-08T10:51:46.310Z,100107.56
2022-11-08T10:54:44.401Z,100109.75
2022-11-08T10:57:15.084Z,100103.50
2022-11-08T10:59:46.049Z,100093.16
2022-11-08T11:02:26.415Z,100089.47
2022-11-08T11:04:56.037Z,100077.72
2022-11-08T11:07:35.330Z,100079.44
2022-11-08T11:10:24.398Z,100075.75
2022-11-08T11:13:00.224Z,100066.72
2022-11-08T11:15:34.458Z,100067.16
2022-11-08T11:18:03.023Z,100061.44
2022-11-08T11:20:31.164Z,100074.00
2022-11-08T11:23:01.114Z,100083.06
2022-11-08T11:25:28.968Z,100092.03
2022-11-08T11:27:59.475Z,100085.09
2022-11-08T11:30:32.155Z,100079.25
2022-11-08T11:33:04.269Z,100064.81
2022-11-08T11:35:45.551Z,100060.75
2022-11-08T11:38:23.521Z,100056.22
2022-11-08T11:40:54.855Z,100059.38
2022-11-08T11:43:29.066Z,100054.00
2022-11-08T11:46:04.729Z,100055.66
2022-11-08T11:48:40.811Z,100048.44
2022-11-08T11:51:11.312Z,100050.28
2022-11-08T11:53:41.724Z,100058.78
2022-11-08T11:56:42.334Z,100072.88
2022-11-08T11:59:40.614Z,100067.50
2022-11-08T12:02:36.921Z,100057.75
2022-11-08T12:05:37.013Z,100051.63
2022-11-08T12:08:21.111Z,100056.75
2022-11-08T12:11:04.688Z,100054.91
2022-11-08T12:13:43.082Z,100061.94
2022-11-08T12:16:19.218Z,100063.59
2022-11-08T12:19:02.059Z,100078.31
2022-11-08T12:21:35.539Z,100072.38
2022-11-08T12:24:22.488Z,100059.78
2022-11-08T12:27:01.537Z,100043.47
2022-11-08T12:29:34.297Z,100030.44
2022-11-08T12:32:21.765Z,100051.13
2022-11-08T12:35:03.330Z,100050.72
2022-11-08T12:37:48.243Z,100056.72
2022-11-08T12:40:24.336Z,100047.19
2022-11-08T12:43:01.600Z,100050.72
2022-11-08T12:45:50.926Z,100054.47
2022-11-08T12:48:32.071Z,100055.94
2022-11-08T12:51:12.136Z,100054.81
2022-11-08T12:53:50.277Z,100057.81
2022-11-08T12:56:22.405Z,100054.56
2022-11-08T12:58:53.170Z,100061.97
2022-11-08T13:01:21.910Z,100064.91
2022-11-08T13:04:31.522Z,100057.03
2022-11-08T13:07:03.986Z,100069.06
2022-11-08T13:09:45.619Z,100059.34
2022-11-08T13:12:28.354Z,100076.09
2022-11-08T13:14:57.057Z,100075.91
2022-11-08T13:17:26.873Z,100075.00
2022-11-08T13:20:00.800Z,100060.75
2022-11-08T13:23:07.666Z,100050.56
2022-11-08T13:26:09.572Z,100052.81
2022-11-08T13:28:40.202Z,100045.88
2022-11-08T13:31:30.478Z,100047.81
2022-11-08T13:34:29.122Z,100046.38
2022-11-08T13:37:13.493Z,100048.78
2022-11-08T13:39:54.359Z,100041.91
2022-11-08T13:42:39.250Z,100040.72
2022-11-08T13:45:26.048Z,100035.94
2022-11-08T13:48:01.641Z,100041.56
2022-11-08T13:51:17.177Z,100023.97
2022-11-08T13:53:49.662Z,100014.47
2022-11-08T13:56:27.120Z,100004.09
2022-11-08T13:58:56.087Z,99995.47
2022-11-08T14:02:01.069Z,99989.28
2022-11-08T14:04:33.450Z,99988.09
2022-11-08T14:07:10.703Z,99991.34
2022-11-08T14:12:50.307Z,100012.13
2022-11-08T14:15:27.116Z,100016.69
2022-11-08T14:18:01.083Z,100003.84
2022-11-08T14:20:34.835Z,99997.66
2022-11-08T14:23:16.253Z,100009.22
2022-11-08T14:25:47.851Z,100022.16
2022-11-08T14:28:23.666Z,100017.84
2022-11-08T14:30:53.091Z,100018.84
2022-11-08T14:33:23.136Z,100017.38
2022-11-08T14:35:59.616Z,100009.31
2022-11-08T14:38:28.173Z,99997.75
2022-11-08T14:41:00.086Z,99998.78
2022-11-08T14:43:28.426Z,99994.44
2022-11-08T14:45:58.773Z,99998.72
2022-11-08T14:48:30.801Z,99994.53
2022-11-08T14:51:01.337Z,99994.81
2022-11-08T14:53:33.534Z,99980.50
2022-11-08T14:56:12.037Z,99974.66
2022-11-08T14:58:41.068Z,99972.19
2022-11-08T15:01:13.647Z,99970.72
2022-11-08T15:03:47.103Z,99968.41
2022-11-08T15:06:15.119Z,99970.91
2022-11-08T15:09:07.095Z,99972.28
2022-11-08T15:11:37.143Z,99973.84
2022-11-08T15:14:09.088Z,99978.56
2022-11-08T15:16:45.292Z,99978.75
2022-11-08T15:19:28.671Z,99985.69
2022-11-08T15:21:57.343Z,99983.59
2022-11-08T15:24:33.910Z,99984.78
2022-11-08T15:27:08.148Z,99968.69
2022-11-08T15:29:52.234Z,99966.41
2022-11-08T15:32:22.991Z,99966.94
2022-11-08T15:34:56.716Z,99969.81
2022-11-08T15:37:30.085Z,99966.47
2022-11-08T15:40:01.674Z,99967.97
2022-11-08T15:42:29.902Z,99966.03
2022-11-08T15:45:05.883Z,99969.72
2022-11-08T15:47:48.098Z,99966.09
2022-11-08T15:50:20.195Z,99965.09
2022-11-08T15:52:49.998Z,99971.84
2022-11-08T15:55:21.146Z,99973.31
2022-11-08T15:57:54.085Z,99969.53
2022-11-08T16:00:25.118Z,99968.69
2022-11-08T16:02:58.513Z,99972.13
2022-11-08T16:05:29.089Z,99954.38
2022-11-08T16:07:58.232Z,99939.53
2022-11-08T16:10:31.080Z,99934.53
2022-11-08T16:13:00.739Z,99938.41
2022-11-08T16:15:32.094Z,99948.94
2022-11-08T16:18:01.631Z,99948.13
2022-11-08T16:20:31.797Z,99948.13
2022-11-08T16:23:00.722Z,99949.69
2022-11-08T16:25:29.816Z,99949.50
2022-11-08T16:28:00.597Z,99952.72
2022-11-08T16:30:29.870Z,99955.03
2022-11-08T16:32:57.830Z,99951.88
2022-11-08T16:35:27.373Z,99947.94
2022-11-08T16:37:54.926Z,99947.06
2022-11-08T16:40:24.611Z,99937.38
2022-11-08T16:42:53.867Z,99933.03
2022-11-08T16:45:43.552Z,99951.59
2022-11-08T16:48:17.726Z,99955.47
2022-11-08T16:50:49.115Z,99958.16
2022-11-08T16:53:17.742Z,99951.31
2022-11-08T16:55:46.045Z,99959.81
2022-11-08T16:58:39.476Z,99966.00
2022-11-08T17:01:10.696Z,99961.84
2022-11-08T17:03:38.463Z,99974.41
2022-11-08T17:06:07.903Z,99976.91
2022-11-08T17:08:36.068Z,99977.25
2022-11-08T17:11:03.635Z,99985.22
2022-11-08T17:13:33.912Z,99974.88
2022-11-08T17:16:05.611Z,99974.03
2022-11-08T17:18:34.163Z,99979.59
2022-11-08T17:21:29.946Z,99977.09
2022-11-08T17:23:55.107Z,99959.34
2022-11-08T17:26:22.801Z,99948.47
2022-11-08T17:28:50.463Z,99946.44
2022-11-08T17:31:20.343Z,99955.19
2022-11-08T17:33:47.908Z,99967.56
2022-11-08T17:36:16.861Z,99988.81
2022-11-08T17:38:44.569Z,99994.72
2022-11-08T17:41:14.093Z,99988.53
2022-11-08T17:43:44.072Z,99980.66
2022-11-08T17:46:12.824Z,99972.91
2022-11-08T17:48:41.382Z,99976.09
2022-11-08T17:51:09.537Z,99969.91
2022-11-08T17:53:39.905Z,99980.41
2022-11-08T17:56:08.607Z,99982.16
2022-11-08T17:58:37.923Z,99989.19
2022-11-08T18:01:07.863Z,99981.00
2022-11-08T18:03:35.823Z,99980.81
2022-11-08T18:06:05.900Z,99972.22
2022-11-08T18:08:35.175Z,99968.81
2022-11-08T18:11:06.108Z,99951.59
2022-11-08T18:13:35.018Z,99958.06
2022-11-08T18:16:10.295Z,99964.44
2022-11-08T18:18:37.984Z,99979.69
2022-11-08T18:21:06.531Z,99972.38
2022-11-08T18:23:35.301Z,99983.09
2022-11-08T18:26:04.083Z,99982.84
2022-11-08T18:28:32.975Z,99976.91
2022-11-08T18:31:06.098Z,99980.63
2022-11-08T18:33:34.091Z,99982.66
2022-11-08T18:36:06.109Z,99977.50
2022-11-08T18:38:35.402Z,99977.50
2022-11-08T18:41:05.991Z,99980.81
2022-11-08T18:43:36.108Z,99986.38
2022-11-08T18:46:04.946Z,99981.16
2022-11-08T18:48:37.097Z,99980.53
2022-11-08T18:51:05.473Z,99981.56
2022-11-08T18:53:33.899Z,99981.28
2022-11-08T18:56:01.874Z,99974.72
2022-11-08T18:58:29.682Z,99978.88
2022-11-08T19:00:59.089Z,99968.06
2022-11-08T19:03:28.172Z,99956.59
2022-11-08T19:05:56.832Z,99953.28
2022-11-08T19:08:26.865Z,99962.31
2022-11-08T19:10:57.183Z,99963.53
2022-11-08T19:13:28.089Z,99958.00
2022-11-08T19:16:00.133Z,99953.09
2022-11-08T19:18:29.073Z,99968.91
2022-11-08T19:20:57.825Z,99963.53
2022-11-08T19:23:27.103Z,99979.22
2022-11-08T19:25:57.745Z,99973.03
2022-11-08T19:28:30.360Z,99979.41
2022-11-08T19:31:03.168Z,99985.16
2022-11-08T19:33:32.104Z,99976.28
2022-11-08T19:36:05.211Z,99982.50
2022-11-08T19:38:33.248Z,99983.31
2022-11-08T19:41:02.759Z,99989.69
2022-11-08T19:43:30.795Z,99978.50
2022-11-08T19:46:05.993Z,99977.47
2022-11-08T19:48:36.723Z,99976.66
2022-11-08T19:51:07.090Z,99973.50
2022-11-08T19:53:34.908Z,99983.56
2022-11-08T19:56:03.604Z,99984.59
2022-11-08T19:58:31.985Z,99983.56
2022-11-08T20:01:07.862Z,99992.00
2022-11-08T20:03:35.836Z,99991.31
2022-11-08T20:06:03.676Z,99988.66
2022-11-08T20:08:32.102Z,99995.66
2022-11-08T20:11:00.146Z,99996.03
2022-11-08T20:13:28.093Z,99996.03
2022-11-08T20:15:55.625Z,99991.03
2022-11-08T20:18:24.593Z,99994.53
2022-11-08T20:20:52.483Z,99991.22
2022-11-08T20:23:20.031Z,99996.97
2022-11-08T20:25:48.786Z,99999.66
2022-11-08T20:28:17.023Z,99993.63
2022-11-08T20:30:44.853Z,100001.00
2022-11-08T20:33:14.157Z,100000.00
2022-11-08T20:35:43.086Z,99996.00
2022-11-08T20:38:11.101Z,99999.69
2022-11-08T20:40:40.486Z,100002.38
2022-11-08T20:43:08.323Z,100012.06
2022-11-08T20:45:39.814Z,100013.91
2022-11-08T20:48:09.214Z,100014.94
2022-11-08T20:50:39.100Z,100015.97
2022-11-08T20:53:08.030Z,100009.59
2022-11-08T20:55:35.591Z,99998.03
2022-11-08T20:58:04.183Z,100002.38
2022-11-08T21:00:56.770Z,100007.94
2022-11-08T21:03:19.650Z,100009.22
2022-11-08T21:05:51.591Z,100002.66
2022-11-08T21:11:13.313Z,100001.84
2022-11-08T21:13:43.778Z,100005.53
2022-11-08T21:16:29.231Z,99998.81
2022-11-08T21:18:59.141Z,99999.25
2022-11-08T21:21:27.297Z,100011.00
2022-11-08T21:23:58.164Z,100006.84
2022-11-08T21:26:26.466Z,100010.81
2022-11-08T21:28:54.622Z,100009.78
2022-11-08T21:31:22.715Z,100017.38
2022-11-08T21:33:50.365Z,100021.31
2022-11-08T21:36:19.113Z,100031.22
2022-11-08T21:38:46.751Z,100028.38
2022-11-08T21:41:15.915Z,100025.50
2022-11-08T21:43:45.315Z,100020.16
2022-11-08T21:46:16.733Z,100022.00
2022-11-08T21:48:45.215Z,100022.28
2022-11-08T21:51:15.079Z,100026.63
2022-11-08T21:53:52.438Z,100026.63
2022-11-08T21:56:22.160Z,100019.78
2022-11-08T21:58:51.823Z,100017.28
2022-11-08T22:01:21.528Z,100010.06
2022-11-08T22:03:51.825Z,100013.78
2022-11-08T22:06:21.311Z,100019.78
2022-11-08T22:08:52.712Z,100013.97
2022-11-08T22:11:21.687Z,100020.69
2022-11-08T22:13:49.305Z,100026.25
2022-11-08T22:16:16.901Z,100028.72
2022-11-08T22:21:43.493Z,100033.63
2022-11-08T22:24:14.336Z,100030.47
2022-11-08T22:26:43.454Z,100037.19
2022-11-08T22:29:15.298Z,100035.72
2022-11-08T22:31:43.467Z,100035.91
2022-11-08T22:34:11.659Z,100034.78
2022-11-08T22:36:44.788Z,100030.59
2022-11-08T22:39:16.175Z,100022.38
2022-11-08T22:41:48.200Z,100028.13
2022-11-08T22:44:17.281Z,100031.13
2022-11-08T22:46:46.643Z,100026.63
2022-11-08T22:49:15.423Z,100032.16
2022-11-08T22:51:44.185Z,100034.84
2022-11-08T22:54:11.777Z,100029.66
2022-11-08T22:56:40.156Z,100024.78
2022-11-08T22:59:09.304Z,100025.31
2022-11-08T23:01:37.927Z,100028.00
2022-11-08T23:04:05.664Z,100031.31
2022-11-08T23:06:33.413Z,100021.25
2022-11-08T23:09:01.209Z,100019.91
2022-11-08T23:11:46.574Z,100015.91
2022-11-08T23:14:37.115Z,100020.44
2022-11-08T23:17:07.639Z,100020.09
2022-11-08T23:19:53.110Z,100015.91
2022-11-08T23:22:39.433Z,100017.03
2022-11-08T23:25:07.950Z,100029.97
2022-11-08T23:27:52.993Z,100022.94
2022-11-08T23:30:40.038Z,100025.44
2022-11-08T23:33:08.330Z,100027.94
2022-11-08T23:35:36.259Z,100033.28
2022-11-08T23:38:06.125Z,100027.09
2022-11-08T23:40:51.114Z,100031.44
2022-11-08T23:43:38.147Z,100028.41
2022-11-08T23:46:09.682Z,100031.09
2022-11-08T23:48:39.113Z,100027.88
2022-11-08T23:51:07.639Z,100033.03
2022-11-08T23:53:37.286Z,100030.19
2022-11-08T23:56:06.341Z,100019.28
2022-11-08T23:58:34.382Z,100019.28
